sensor_id;sensor_type;location;lat;lon;timestamp;P1;durP1;ratioP1;P2;durP2;ratioP2
6135;SDS011;24008;42.664;23.372;2023-02-03T00:02:01;6.00;;;4.07;;
6135;SDS011;24008;42.664;23.372;2023-02-03T00:04:28;4.80;;;3.40;;
6135;SDS011;24008;42.664;23.372;2023-02-03T00:06:56;4.07;;;3.60;;
6135;SDS011;24008;42.664;23.372;2023-02-03T00:09:23;5.47;;;3.73;;
6135;SDS011;24008;42.664;23.372;2023-02-03T00:11:50;5.00;;;4.17;;
6135;SDS011;24008;42.664;23.372;2023-02-03T00:14:17;5.70;;;3.90;;
6135;SDS011;24008;42.664;23.372;2023-02-03T00:16:44;6.00;;;4.50;;
6135;SDS011;24008;42.664;23.372;2023-02-03T00:19:10;6.33;;;4.50;;
6135;SDS011;24008;42.664;23.372;2023-02-03T00:21:37;7.10;;;4.80;;
6135;SDS011;24008;42.664;23.372;2023-02-03T00:24:05;6.10;;;4.50;;
6135;SDS011;24008;42.664;23.372;2023-02-03T00:26:32;9.43;;;4.47;;
6135;SDS011;24008;42.664;23.372;2023-02-03T00:28:59;5.57;;;4.17;;
6135;SDS011;24008;42.664;23.372;2023-02-03T00:31:26;6.13;;;4.60;;
6135;SDS011;24008;42.664;23.372;2023-02-03T00:33:53;6.33;;;4.53;;
6135;SDS011;24008;42.664;23.372;2023-02-03T00:36:21;5.50;;;4.50;;
6135;SDS011;24008;42.664;23.372;2023-02-03T00:38:48;7.20;;;4.93;;
6135;SDS011;24008;42.664;23.372;2023-02-03T00:41:16;10.13;;;6.10;;
6135;SDS011;24008;42.664;23.372;2023-02-03T00:43:44;10.37;;;6.03;;
6135;SDS011;24008;42.664;23.372;2023-02-03T00:46:10;8.70;;;5.33;;
6135;SDS011;24008;42.664;23.372;2023-02-03T00:48:37;7.37;;;5.50;;
6135;SDS011;24008;42.664;23.372;2023-02-03T00:51:04;8.23;;;5.87;;
6135;SDS011;24008;42.664;23.372;2023-02-03T00:53:31;7.10;;;5.93;;
6135;SDS011;24008;42.664;23.372;2023-02-03T00:55:58;7.33;;;5.13;;
6135;SDS011;24008;42.664;23.372;2023-02-03T00:58:26;6.97;;;5.60;;
6135;SDS011;24008;42.664;23.372;2023-02-03T01:00:53;8.43;;;5.80;;
6135;SDS011;24008;42.664;23.372;2023-02-03T01:03:21;8.20;;;6.03;;
6135;SDS011;24008;42.664;23.372;2023-02-03T01:05:48;8.00;;;5.97;;
6135;SDS011;24008;42.664;23.372;2023-02-03T01:08:15;8.50;;;6.03;;
6135;SDS011;24008;42.664;23.372;2023-02-03T01:10:41;8.10;;;6.13;;
6135;SDS011;24008;42.664;23.372;2023-02-03T01:13:08;8.97;;;5.67;;
6135;SDS011;24008;42.664;23.372;2023-02-03T01:15:36;7.37;;;5.73;;
6135;SDS011;24008;42.664;23.372;2023-02-03T01:18:03;7.67;;;5.17;;
6135;SDS011;24008;42.664;23.372;2023-02-03T01:20:30;7.63;;;5.67;;
6135;SDS011;24008;42.664;23.372;2023-02-03T01:22:57;8.83;;;6.17;;
6135;SDS011;24008;42.664;23.372;2023-02-03T01:25:24;8.43;;;5.47;;
6135;SDS011;24008;42.664;23.372;2023-02-03T01:27:50;6.77;;;5.30;;
6135;SDS011;24008;42.664;23.372;2023-02-03T01:30:17;7.67;;;5.10;;
6135;SDS011;24008;42.664;23.372;2023-02-03T01:32:46;7.33;;;5.10;;
6135;SDS011;24008;42.664;23.372;2023-02-03T01:35:12;6.10;;;4.50;;
6135;SDS011;24008;42.664;23.372;2023-02-03T01:37:39;8.10;;;4.43;;
6135;SDS011;24008;42.664;23.372;2023-02-03T01:40:07;5.60;;;4.00;;
6135;SDS011;24008;42.664;23.372;2023-02-03T01:42:34;6.77;;;4.17;;
6135;SDS011;24008;42.664;23.372;2023-02-03T01:45:01;6.80;;;4.17;;
6135;SDS011;24008;42.664;23.372;2023-02-03T01:47:28;6.10;;;3.80;;
6135;SDS011;24008;42.664;23.372;2023-02-03T01:50:01;4.93;;;3.47;;
6135;SDS011;24008;42.664;23.372;2023-02-03T01:52:34;4.77;;;3.57;;
6135;SDS011;24008;42.664;23.372;2023-02-03T01:55:02;5.77;;;3.27;;
6135;SDS011;24008;42.664;23.372;2023-02-03T01:57:34;4.63;;;3.40;;
6135;SDS011;24008;42.664;23.372;2023-02-03T02:00:06;4.23;;;3.40;;
6135;SDS011;24008;42.664;23.372;2023-02-03T02:02:34;3.80;;;3.40;;
6135;SDS011;24008;42.664;23.372;2023-02-03T02:05:05;3.50;;;3.00;;
6135;SDS011;24008;42.664;23.372;2023-02-03T02:07:36;3.27;;;2.87;;
6135;SDS011;24008;42.664;23.372;2023-02-03T02:10:05;4.00;;;3.20;;
6135;SDS011;24008;42.664;23.372;2023-02-03T02:12:33;4.00;;;3.07;;
6135;SDS011;24008;42.664;23.372;2023-02-03T02:15:00;4.13;;;3.10;;
6135;SDS011;24008;42.664;23.372;2023-02-03T02:17:46;4.07;;;3.40;;
6135;SDS011;24008;42.664;23.372;2023-02-03T02:20:31;5.67;;;3.43;;
6135;SDS011;24008;42.664;23.372;2023-02-03T02:26:29;4.07;;;3.20;;
6135;SDS011;24008;42.664;23.372;2023-02-03T02:32:11;5.57;;;3.47;;
6135;SDS011;24008;42.664;23.372;2023-02-03T02:34:50;3.87;;;3.47;;
6135;SDS011;24008;42.664;23.372;2023-02-03T02:37:27;5.03;;;3.83;;
6135;SDS011;24008;42.664;23.372;2023-02-03T02:40:05;5.20;;;3.80;;
6135;SDS011;24008;42.664;23.372;2023-02-03T02:42:42;5.53;;;4.50;;
6135;SDS011;24008;42.664;23.372;2023-02-03T02:45:21;5.97;;;4.10;;
6135;SDS011;24008;42.664;23.372;2023-02-03T02:47:55;5.47;;;4.00;;
6135;SDS011;24008;42.664;23.372;2023-02-03T02:50:28;4.87;;;3.90;;
6135;SDS011;24008;42.664;23.372;2023-02-03T02:53:00;5.50;;;4.00;;
6135;SDS011;24008;42.664;23.372;2023-02-03T02:55:29;5.43;;;4.43;;
6135;SDS011;24008;42.664;23.372;2023-02-03T02:58:01;4.67;;;4.17;;
6135;SDS011;24008;42.664;23.372;2023-02-03T03:00:33;4.63;;;3.90;;
6135;SDS011;24008;42.664;23.372;2023-02-03T03:03:12;6.00;;;4.07;;
6135;SDS011;24008;42.664;23.372;2023-02-03T03:05:40;5.93;;;3.90;;
6135;SDS011;24008;42.664;23.372;2023-02-03T03:08:11;6.27;;;4.37;;
6135;SDS011;24008;42.664;23.372;2023-02-03T03:10:39;5.27;;;4.17;;
6135;SDS011;24008;42.664;23.372;2023-02-03T03:13:11;5.43;;;4.67;;
6135;SDS011;24008;42.664;23.372;2023-02-03T03:15:42;5.27;;;3.90;;
6135;SDS011;24008;42.664;23.372;2023-02-03T03:18:10;5.90;;;4.33;;
6135;SDS011;24008;42.664;23.372;2023-02-03T03:20:43;5.07;;;4.13;;
6135;SDS011;24008;42.664;23.372;2023-02-03T03:23:17;5.93;;;4.17;;
6135;SDS011;24008;42.664;23.372;2023-02-03T03:25:48;5.73;;;4.50;;
6135;SDS011;24008;42.664;23.372;2023-02-03T03:28:21;6.13;;;4.37;;
6135;SDS011;24008;42.664;23.372;2023-02-03T03:30:53;4.40;;;4.00;;
6135;SDS011;24008;42.664;23.372;2023-02-03T03:33:21;6.00;;;4.50;;
6135;SDS011;24008;42.664;23.372;2023-02-03T03:35:51;4.73;;;3.83;;
6135;SDS011;24008;42.664;23.372;2023-02-03T03:38:26;5.27;;;3.70;;
6135;SDS011;24008;42.664;23.372;2023-02-03T03:40:59;4.93;;;3.60;;
6135;SDS011;24008;42.664;23.372;2023-02-03T03:43:30;5.07;;;4.10;;
6135;SDS011;24008;42.664;23.372;2023-02-03T03:45:59;5.97;;;4.30;;
6135;SDS011;24008;42.664;23.372;2023-02-03T03:48:35;6.83;;;3.90;;
6135;SDS011;24008;42.664;23.372;2023-02-03T03:51:06;5.53;;;3.90;;
6135;SDS011;24008;42.664;23.372;2023-02-03T03:53:37;4.13;;;3.63;;
6135;SDS011;24008;42.664;23.372;2023-02-03T03:56:07;4.10;;;3.70;;
6135;SDS011;24008;42.664;23.372;2023-02-03T03:58:39;4.03;;;3.63;;
6135;SDS011;24008;42.664;23.372;2023-02-03T04:01:10;4.40;;;3.43;;
6135;SDS011;24008;42.664;23.372;2023-02-03T04:03:42;3.90;;;3.50;;
6135;SDS011;24008;42.664;23.372;2023-02-03T04:06:11;4.00;;;3.60;;
6135;SDS011;24008;42.664;23.372;2023-02-03T04:08:39;4.90;;;4.03;;
6135;SDS011;24008;42.664;23.372;2023-02-03T04:11:05;4.13;;;3.60;;
6135;SDS011;24008;42.664;23.372;2023-02-03T04:13:32;4.13;;;3.73;;
6135;SDS011;24008;42.664;23.372;2023-02-03T04:15:59;5.13;;;4.10;;
6135;SDS011;24008;42.664;23.372;2023-02-03T04:18:26;4.90;;;3.70;;
6135;SDS011;24008;42.664;23.372;2023-02-03T04:20:54;5.40;;;4.67;;
6135;SDS011;24008;42.664;23.372;2023-02-03T04:23:21;5.63;;;4.20;;
6135;SDS011;24008;42.664;23.372;2023-02-03T04:25:47;4.30;;;3.77;;
6135;SDS011;24008;42.664;23.372;2023-02-03T04:28:14;4.57;;;4.03;;
6135;SDS011;24008;42.664;23.372;2023-02-03T04:30:41;5.27;;;3.90;;
6135;SDS011;24008;42.664;23.372;2023-02-03T04:33:08;8.13;;;4.33;;
6135;SDS011;24008;42.664;23.372;2023-02-03T04:35:34;4.97;;;4.47;;
6135;SDS011;24008;42.664;23.372;2023-02-03T04:38:03;8.20;;;5.57;;
6135;SDS011;24008;42.664;23.372;2023-02-03T04:40:29;5.90;;;4.73;;
6135;SDS011;24008;42.664;23.372;2023-02-03T04:42:56;6.73;;;4.90;;
6135;SDS011;24008;42.664;23.372;2023-02-03T04:45:23;6.57;;;4.63;;
6135;SDS011;24008;42.664;23.372;2023-02-03T04:47:50;6.93;;;4.80;;
6135;SDS011;24008;42.664;23.372;2023-02-03T04:50:18;5.53;;;4.93;;
6135;SDS011;24008;42.664;23.372;2023-02-03T04:52:45;5.23;;;4.53;;
6135;SDS011;24008;42.664;23.372;2023-02-03T04:55:13;8.87;;;4.80;;
6135;SDS011;24008;42.664;23.372;2023-02-03T04:57:40;8.30;;;4.97;;
6135;SDS011;24008;42.664;23.372;2023-02-03T05:00:07;5.70;;;4.50;;
6135;SDS011;24008;42.664;23.372;2023-02-03T05:02:34;7.03;;;5.17;;
6135;SDS011;24008;42.664;23.372;2023-02-03T05:05:01;6.63;;;5.50;;
6135;SDS011;24008;42.664;23.372;2023-02-03T05:07:28;6.93;;;5.27;;
6135;SDS011;24008;42.664;23.372;2023-02-03T05:09:55;7.17;;;5.33;;
6135;SDS011;24008;42.664;23.372;2023-02-03T05:12:23;6.07;;;5.07;;
6135;SDS011;24008;42.664;23.372;2023-02-03T05:14:50;6.70;;;5.27;;
6135;SDS011;24008;42.664;23.372;2023-02-03T05:17:16;6.63;;;5.47;;
6135;SDS011;24008;42.664;23.372;2023-02-03T05:19:43;6.83;;;5.50;;
6135;SDS011;24008;42.664;23.372;2023-02-03T05:22:10;6.63;;;5.00;;
6135;SDS011;24008;42.664;23.372;2023-02-03T05:24:37;5.87;;;5.27;;
6135;SDS011;24008;42.664;23.372;2023-02-03T05:27:04;6.73;;;5.23;;
6135;SDS011;24008;42.664;23.372;2023-02-03T05:29:32;6.77;;;5.60;;
6135;SDS011;24008;42.664;23.372;2023-02-03T05:31:59;6.97;;;5.87;;
6135;SDS011;24008;42.664;23.372;2023-02-03T05:34:26;7.70;;;5.80;;
6135;SDS011;24008;42.664;23.372;2023-02-03T05:36:53;7.07;;;5.77;;
6135;SDS011;24008;42.664;23.372;2023-02-03T05:39:19;6.83;;;6.10;;
6135;SDS011;24008;42.664;23.372;2023-02-03T05:41:46;9.50;;;6.07;;
6135;SDS011;24008;42.664;23.372;2023-02-03T05:44:18;8.53;;;6.20;;
6135;SDS011;24008;42.664;23.372;2023-02-03T05:46:46;7.07;;;5.77;;
6135;SDS011;24008;42.664;23.372;2023-02-03T05:49:13;8.13;;;6.27;;
6135;SDS011;24008;42.664;23.372;2023-02-03T05:51:40;6.80;;;5.97;;
6135;SDS011;24008;42.664;23.372;2023-02-03T05:54:07;7.63;;;5.90;;
6135;SDS011;24008;42.664;23.372;2023-02-03T05:56:34;8.57;;;5.67;;
6135;SDS011;24008;42.664;23.372;2023-02-03T05:59:01;8.13;;;6.07;;
6135;SDS011;24008;42.664;23.372;2023-02-03T06:01:28;7.50;;;5.90;;
6135;SDS011;24008;42.664;23.372;2023-02-03T06:03:56;8.97;;;6.50;;
6135;SDS011;24008;42.664;23.372;2023-02-03T06:06:23;9.97;;;6.97;;
6135;SDS011;24008;42.664;23.372;2023-02-03T06:08:51;6.87;;;6.17;;
6135;SDS011;24008;42.664;23.372;2023-02-03T06:11:21;8.67;;;6.97;;
6135;SDS011;24008;42.664;23.372;2023-02-03T06:13:48;8.27;;;6.00;;
6135;SDS011;24008;42.664;23.372;2023-02-03T06:16:15;8.20;;;6.40;;
6135;SDS011;24008;42.664;23.372;2023-02-03T06:18:42;7.13;;;6.37;;
6135;SDS011;24008;42.664;23.372;2023-02-03T06:21:11;6.90;;;5.87;;
6135;SDS011;24008;42.664;23.372;2023-02-03T06:23:38;7.67;;;6.20;;
6135;SDS011;24008;42.664;23.372;2023-02-03T06:26:05;7.70;;;6.30;;
6135;SDS011;24008;42.664;23.372;2023-02-03T06:28:32;7.07;;;6.00;;
6135;SDS011;24008;42.664;23.372;2023-02-03T06:30:58;7.73;;;6.70;;
6135;SDS011;24008;42.664;23.372;2023-02-03T06:33:25;8.83;;;6.63;;
6135;SDS011;24008;42.664;23.372;2023-02-03T06:35:52;8.13;;;5.70;;
6135;SDS011;24008;42.664;23.372;2023-02-03T06:38:20;8.80;;;6.13;;
6135;SDS011;24008;42.664;23.372;2023-02-03T06:40:47;8.03;;;5.90;;
6135;SDS011;24008;42.664;23.372;2023-02-03T06:43:14;5.77;;;4.50;;
6135;SDS011;24008;42.664;23.372;2023-02-03T06:45:43;7.00;;;4.60;;
6135;SDS011;24008;42.664;23.372;2023-02-03T06:48:10;6.07;;;4.80;;
6135;SDS011;24008;42.664;23.372;2023-02-03T06:50:37;4.37;;;3.97;;
6135;SDS011;24008;42.664;23.372;2023-02-03T06:53:04;5.50;;;3.83;;
6135;SDS011;24008;42.664;23.372;2023-02-03T06:55:32;4.23;;;3.80;;
6135;SDS011;24008;42.664;23.372;2023-02-03T06:57:59;3.73;;;3.43;;
6135;SDS011;24008;42.664;23.372;2023-02-03T07:00:25;4.03;;;3.10;;
6135;SDS011;24008;42.664;23.372;2023-02-03T07:02:52;3.67;;;3.20;;
6135;SDS011;24008;42.664;23.372;2023-02-03T07:05:20;5.23;;;3.97;;
6135;SDS011;24008;42.664;23.372;2023-02-03T07:07:47;5.30;;;4.10;;
6135;SDS011;24008;42.664;23.372;2023-02-03T07:10:14;4.17;;;3.27;;
6135;SDS011;24008;42.664;23.372;2023-02-03T07:12:43;4.33;;;3.53;;
6135;SDS011;24008;42.664;23.372;2023-02-03T07:15:10;4.00;;;3.53;;
6135;SDS011;24008;42.664;23.372;2023-02-03T07:17:37;3.77;;;3.23;;
6135;SDS011;24008;42.664;23.372;2023-02-03T07:20:04;3.63;;;3.33;;
6135;SDS011;24008;42.664;23.372;2023-02-03T07:22:31;5.07;;;4.43;;
6135;SDS011;24008;42.664;23.372;2023-02-03T07:24:58;6.87;;;4.80;;
6135;SDS011;24008;42.664;23.372;2023-02-03T07:27:25;3.80;;;3.50;;
6135;SDS011;24008;42.664;23.372;2023-02-03T07:29:53;6.77;;;4.20;;
6135;SDS011;24008;42.664;23.372;2023-02-03T07:32:20;4.47;;;3.40;;
6135;SDS011;24008;42.664;23.372;2023-02-03T07:34:46;4.77;;;3.30;;
6135;SDS011;24008;42.664;23.372;2023-02-03T07:37:13;6.13;;;3.90;;
6135;SDS011;24008;42.664;23.372;2023-02-03T07:39:40;4.47;;;3.63;;
6135;SDS011;24008;42.664;23.372;2023-02-03T07:42:07;4.50;;;3.97;;
6135;SDS011;24008;42.664;23.372;2023-02-03T07:44:34;4.60;;;4.20;;
6135;SDS011;24008;42.664;23.372;2023-02-03T07:47:02;4.40;;;3.60;;
6135;SDS011;24008;42.664;23.372;2023-02-03T07:49:29;4.10;;;3.70;;
6135;SDS011;24008;42.664;23.372;2023-02-03T07:51:55;5.07;;;4.17;;
6135;SDS011;24008;42.664;23.372;2023-02-03T07:54:22;4.83;;;3.10;;
6135;SDS011;24008;42.664;23.372;2023-02-03T07:56:49;7.27;;;3.97;;
6135;SDS011;24008;42.664;23.372;2023-02-03T07:59:16;5.27;;;3.07;;
6135;SDS011;24008;42.664;23.372;2023-02-03T08:01:42;5.30;;;3.50;;
6135;SDS011;24008;42.664;23.372;2023-02-03T08:04:11;4.17;;;3.57;;
6135;SDS011;24008;42.664;23.372;2023-02-03T08:06:40;4.27;;;3.30;;
6135;SDS011;24008;42.664;23.372;2023-02-03T08:09:07;3.93;;;3.47;;
6135;SDS011;24008;42.664;23.372;2023-02-03T08:11:34;3.90;;;3.30;;
6135;SDS011;24008;42.664;23.372;2023-02-03T08:14:01;4.00;;;3.10;;
6135;SDS011;24008;42.664;23.372;2023-02-03T08:16:27;5.03;;;3.33;;
6135;SDS011;24008;42.664;23.372;2023-02-03T08:18:54;3.50;;;2.83;;
6135;SDS011;24008;42.664;23.372;2023-02-03T08:21:23;4.37;;;3.30;;
6135;SDS011;24008;42.664;23.372;2023-02-03T08:23:50;3.97;;;3.40;;
6135;SDS011;24008;42.664;23.372;2023-02-03T08:26:16;4.10;;;3.27;;
6135;SDS011;24008;42.664;23.372;2023-02-03T08:28:46;7.30;;;3.63;;
6135;SDS011;24008;42.664;23.372;2023-02-03T08:31:13;6.90;;;3.10;;
6135;SDS011;24008;42.664;23.372;2023-02-03T08:33:40;4.93;;;3.07;;
6135;SDS011;24008;42.664;23.372;2023-02-03T08:36:07;3.67;;;3.10;;
6135;SDS011;24008;42.664;23.372;2023-02-03T08:38:36;4.10;;;3.20;;
6135;SDS011;24008;42.664;23.372;2023-02-03T08:41:07;10.63;;;3.23;;
6135;SDS011;24008;42.664;23.372;2023-02-03T08:43:34;6.53;;;3.93;;
6135;SDS011;24008;42.664;23.372;2023-02-03T08:46:01;5.70;;;3.33;;
6135;SDS011;24008;42.664;23.372;2023-02-03T08:48:29;5.20;;;3.57;;
6135;SDS011;24008;42.664;23.372;2023-02-03T08:50:55;4.00;;;2.90;;
6135;SDS011;24008;42.664;23.372;2023-02-03T08:53:22;3.93;;;3.63;;
6135;SDS011;24008;42.664;23.372;2023-02-03T08:55:50;4.13;;;3.63;;
6135;SDS011;24008;42.664;23.372;2023-02-03T08:58:17;4.73;;;3.37;;
6135;SDS011;24008;42.664;23.372;2023-02-03T09:00:44;3.50;;;3.20;;
6135;SDS011;24008;42.664;23.372;2023-02-03T09:03:13;3.23;;;2.90;;
6135;SDS011;24008;42.664;23.372;2023-02-03T09:05:40;3.63;;;3.10;;
6135;SDS011;24008;42.664;23.372;2023-02-03T09:08:07;5.47;;;3.13;;
6135;SDS011;24008;42.664;23.372;2023-02-03T09:10:34;4.20;;;3.20;;
6135;SDS011;24008;42.664;23.372;2023-02-03T09:13:02;4.77;;;3.17;;
6135;SDS011;24008;42.664;23.372;2023-02-03T09:15:29;4.53;;;3.33;;
6135;SDS011;24008;42.664;23.372;2023-02-03T09:17:56;3.60;;;3.03;;
6135;SDS011;24008;42.664;23.372;2023-02-03T09:20:23;6.73;;;3.13;;
6135;SDS011;24008;42.664;23.372;2023-02-03T09:22:50;4.13;;;3.20;;
6135;SDS011;24008;42.664;23.372;2023-02-03T09:25:19;3.80;;;2.87;;
6135;SDS011;24008;42.664;23.372;2023-02-03T09:27:45;7.77;;;3.40;;
6135;SDS011;24008;42.664;23.372;2023-02-03T09:30:14;3.23;;;2.60;;
6135;SDS011;24008;42.664;23.372;2023-02-03T09:32:41;3.33;;;2.57;;
6135;SDS011;24008;42.664;23.372;2023-02-03T09:35:07;5.30;;;2.47;;
6135;SDS011;24008;42.664;23.372;2023-02-03T09:37:34;3.23;;;2.30;;
6135;SDS011;24008;42.664;23.372;2023-02-03T09:40:01;3.23;;;2.60;;
6135;SDS011;24008;42.664;23.372;2023-02-03T09:45:22;4.10;;;3.10;;
6135;SDS011;24008;42.664;23.372;2023-02-03T09:47:52;2.73;;;2.53;;
6135;SDS011;24008;42.664;23.372;2023-02-03T09:50:21;5.17;;;2.70;;
6135;SDS011;24008;42.664;23.372;2023-02-03T09:52:50;4.33;;;2.60;;
6135;SDS011;24008;42.664;23.372;2023-02-03T09:55:22;4.63;;;1.87;;
6135;SDS011;24008;42.664;23.372;2023-02-03T09:57:54;3.33;;;2.60;;
6135;SDS011;24008;42.664;23.372;2023-02-03T10:00:29;3.10;;;2.30;;
6135;SDS011;24008;42.664;23.372;2023-02-03T10:03:02;2.70;;;1.93;;
6135;SDS011;24008;42.664;23.372;2023-02-03T10:05:42;3.73;;;2.57;;
6135;SDS011;24008;42.664;23.372;2023-02-03T10:08:21;5.63;;;3.00;;
6135;SDS011;24008;42.664;23.372;2023-02-03T10:11:03;3.13;;;2.50;;
6135;SDS011;24008;42.664;23.372;2023-02-03T10:13:41;5.57;;;2.63;;
6135;SDS011;24008;42.664;23.372;2023-02-03T10:16:18;3.57;;;2.60;;
6135;SDS011;24008;42.664;23.372;2023-02-03T10:18:53;4.13;;;2.70;;
6135;SDS011;24008;42.664;23.372;2023-02-03T10:21:35;3.87;;;2.30;;
6135;SDS011;24008;42.664;23.372;2023-02-03T10:24:08;4.13;;;2.53;;
6135;SDS011;24008;42.664;23.372;2023-02-03T10:26:38;3.60;;;2.40;;
6135;SDS011;24008;42.664;23.372;2023-02-03T10:29:07;4.03;;;3.20;;
6135;SDS011;24008;42.664;23.372;2023-02-03T10:31:44;3.90;;;3.13;;
6135;SDS011;24008;42.664;23.372;2023-02-03T10:34:12;3.73;;;2.83;;
6135;SDS011;24008;42.664;23.372;2023-02-03T10:39:30;3.47;;;2.60;;
6135;SDS011;24008;42.664;23.372;2023-02-03T10:41:58;3.50;;;2.00;;
6135;SDS011;24008;42.664;23.372;2023-02-03T10:44:30;3.70;;;2.63;;
6135;SDS011;24008;42.664;23.372;2023-02-03T10:47:08;3.70;;;2.27;;
6135;SDS011;24008;42.664;23.372;2023-02-03T10:49:43;3.60;;;2.70;;
6135;SDS011;24008;42.664;23.372;2023-02-03T10:52:23;4.20;;;3.20;;
6135;SDS011;24008;42.664;23.372;2023-02-03T10:54:55;3.70;;;2.80;;
6135;SDS011;24008;42.664;23.372;2023-02-03T10:57:23;4.13;;;2.50;;
6135;SDS011;24008;42.664;23.372;2023-02-03T10:59:52;4.00;;;3.60;;
6135;SDS011;24008;42.664;23.372;2023-02-03T11:02:35;6.13;;;3.73;;
6135;SDS011;24008;42.664;23.372;2023-02-03T11:05:18;3.70;;;3.10;;
6135;SDS011;24008;42.664;23.372;2023-02-03T11:07:49;3.90;;;2.90;;
6135;SDS011;24008;42.664;23.372;2023-02-03T11:10:27;2.70;;;2.50;;
6135;SDS011;24008;42.664;23.372;2023-02-03T11:13:16;5.37;;;3.00;;
6135;SDS011;24008;42.664;23.372;2023-02-03T11:15:50;3.57;;;3.10;;
6135;SDS011;24008;42.664;23.372;2023-02-03T11:18:26;4.93;;;2.67;;
6135;SDS011;24008;42.664;23.372;2023-02-03T11:21:12;3.73;;;2.80;;
6135;SDS011;24008;42.664;23.372;2023-02-03T11:23:47;3.87;;;2.40;;
6135;SDS011;24008;42.664;23.372;2023-02-03T11:26:18;3.93;;;3.10;;
6135;SDS011;24008;42.664;23.372;2023-02-03T11:28:48;3.47;;;3.00;;
6135;SDS011;24008;42.664;23.372;2023-02-03T11:31:19;4.90;;;2.60;;
6135;SDS011;24008;42.664;23.372;2023-02-03T11:33:54;2.80;;;2.40;;
6135;SDS011;24008;42.664;23.372;2023-02-03T11:36:27;3.57;;;2.63;;
6135;SDS011;24008;42.664;23.372;2023-02-03T11:39:07;2.90;;;2.60;;
6135;SDS011;24008;42.664;23.372;2023-02-03T11:41:35;2.83;;;2.53;;
6135;SDS011;24008;42.664;23.372;2023-02-03T11:44:09;5.10;;;2.17;;
6135;SDS011;24008;42.664;23.372;2023-02-03T11:46:37;3.53;;;2.60;;
6135;SDS011;24008;42.664;23.372;2023-02-03T11:49:10;3.10;;;2.50;;
6135;SDS011;24008;42.664;23.372;2023-02-03T11:51:47;4.63;;;2.50;;
6135;SDS011;24008;42.664;23.372;2023-02-03T11:54:24;3.07;;;2.67;;
6135;SDS011;24008;42.664;23.372;2023-02-03T11:57:04;3.00;;;2.70;;
6135;SDS011;24008;42.664;23.372;2023-02-03T11:59:49;4.37;;;2.57;;
6135;SDS011;24008;42.664;23.372;2023-02-03T12:02:38;3.40;;;2.67;;
6135;SDS011;24008;42.664;23.372;2023-02-03T12:05:27;3.33;;;2.30;;
6135;SDS011;24008;42.664;23.372;2023-02-03T12:08:07;4.67;;;2.80;;
6135;SDS011;24008;42.664;23.372;2023-02-03T12:10:44;2.70;;;2.47;;
6135;SDS011;24008;42.664;23.372;2023-02-03T12:16:34;3.37;;;2.40;;
6135;SDS011;24008;42.664;23.372;2023-02-03T12:19:16;2.67;;;2.20;;
6135;SDS011;24008;42.664;23.372;2023-02-03T12:21:59;2.87;;;2.30;;
6135;SDS011;24008;42.664;23.372;2023-02-03T12:24:35;3.20;;;2.60;;
6135;SDS011;24008;42.664;23.372;2023-02-03T12:27:21;3.57;;;2.50;;
6135;SDS011;24008;42.664;23.372;2023-02-03T12:29:55;4.53;;;2.63;;
6135;SDS011;24008;42.664;23.372;2023-02-03T12:32:31;4.00;;;2.73;;
6135;SDS011;24008;42.664;23.372;2023-02-03T12:35:04;4.80;;;2.37;;
6135;SDS011;24008;42.664;23.372;2023-02-03T12:37:42;6.20;;;2.50;;
6135;SDS011;24008;42.664;23.372;2023-02-03T12:40:16;2.53;;;2.30;;
6135;SDS011;24008;42.664;23.372;2023-02-03T12:42:49;3.17;;;2.63;;
6135;SDS011;24008;42.664;23.372;2023-02-03T12:45:20;4.40;;;2.50;;
6135;SDS011;24008;42.664;23.372;2023-02-03T12:47:53;2.67;;;2.27;;
6135;SDS011;24008;42.664;23.372;2023-02-03T12:50:26;4.43;;;2.70;;
6135;SDS011;24008;42.664;23.372;2023-02-03T12:52:59;4.63;;;2.37;;
6135;SDS011;24008;42.664;23.372;2023-02-03T12:55:31;3.07;;;2.40;;
6135;SDS011;24008;42.664;23.372;2023-02-03T12:58:02;3.93;;;2.70;;
6135;SDS011;24008;42.664;23.372;2023-02-03T13:00:33;3.80;;;2.87;;
6135;SDS011;24008;42.664;23.372;2023-02-03T13:03:15;3.80;;;2.57;;
6135;SDS011;24008;42.664;23.372;2023-02-03T13:05:51;7.27;;;3.40;;
6135;SDS011;24008;42.664;23.372;2023-02-03T13:08:26;3.60;;;2.60;;
6135;SDS011;24008;42.664;23.372;2023-02-03T13:11:01;4.53;;;3.03;;
6135;SDS011;24008;42.664;23.372;2023-02-03T13:13:38;5.70;;;2.63;;
6135;SDS011;24008;42.664;23.372;2023-02-03T13:16:09;4.50;;;2.77;;
6135;SDS011;24008;42.664;23.372;2023-02-03T13:18:37;3.70;;;2.93;;
6135;SDS011;24008;42.664;23.372;2023-02-03T13:21:08;4.53;;;2.87;;
6135;SDS011;24008;42.664;23.372;2023-02-03T13:23:38;4.60;;;3.10;;
6135;SDS011;24008;42.664;23.372;2023-02-03T13:26:15;6.63;;;3.70;;
6135;SDS011;24008;42.664;23.372;2023-02-03T13:31:56;5.10;;;3.90;;
6135;SDS011;24008;42.664;23.372;2023-02-03T13:34:42;4.43;;;3.40;;
6135;SDS011;24008;42.664;23.372;2023-02-03T13:37:39;3.20;;;2.83;;
6135;SDS011;24008;42.664;23.372;2023-02-03T13:40:22;6.30;;;3.50;;
6135;SDS011;24008;42.664;23.372;2023-02-03T13:43:01;4.20;;;3.80;;
6135;SDS011;24008;42.664;23.372;2023-02-03T13:45:31;4.60;;;3.33;;
6135;SDS011;24008;42.664;23.372;2023-02-03T13:48:07;8.27;;;3.60;;
6135;SDS011;24008;42.664;23.372;2023-02-03T13:50:39;4.90;;;4.07;;
6135;SDS011;24008;42.664;23.372;2023-02-03T13:53:07;4.63;;;3.80;;
6135;SDS011;24008;42.664;23.372;2023-02-03T13:55:50;4.57;;;3.60;;
6135;SDS011;24008;42.664;23.372;2023-02-03T13:58:20;4.13;;;3.40;;
6135;SDS011;24008;42.664;23.372;2023-02-03T14:01:00;8.30;;;3.90;;
6135;SDS011;24008;42.664;23.372;2023-02-03T14:03:42;5.00;;;3.90;;
6135;SDS011;24008;42.664;23.372;2023-02-03T14:09:22;6.60;;;3.80;;
6135;SDS011;24008;42.664;23.372;2023-02-03T14:15:00;4.83;;;4.07;;
6135;SDS011;24008;42.664;23.372;2023-02-03T14:17:54;7.13;;;4.67;;
6135;SDS011;24008;42.664;23.372;2023-02-03T14:20:36;8.20;;;4.83;;
6135;SDS011;24008;42.664;23.372;2023-02-03T14:23:16;5.77;;;4.40;;
6135;SDS011;24008;42.664;23.372;2023-02-03T14:25:59;6.93;;;4.77;;
6135;SDS011;24008;42.664;23.372;2023-02-03T14:28:30;6.00;;;4.57;;
6135;SDS011;24008;42.664;23.372;2023-02-03T14:31:15;5.53;;;4.33;;
6135;SDS011;24008;42.664;23.372;2023-02-03T14:33:54;5.47;;;3.80;;
6135;SDS011;24008;42.664;23.372;2023-02-03T14:36:30;6.37;;;4.33;;
6135;SDS011;24008;42.664;23.372;2023-02-03T14:39:01;5.60;;;4.20;;
6135;SDS011;24008;42.664;23.372;2023-02-03T14:41:38;7.17;;;4.30;;
6135;SDS011;24008;42.664;23.372;2023-02-03T14:44:20;6.50;;;4.43;;
6135;SDS011;24008;42.664;23.372;2023-02-03T14:46:58;9.70;;;5.23;;
6135;SDS011;24008;42.664;23.372;2023-02-03T14:49:39;6.83;;;4.67;;
6135;SDS011;24008;42.664;23.372;2023-02-03T14:52:27;5.57;;;4.40;;
6135;SDS011;24008;42.664;23.372;2023-02-03T14:55:12;7.63;;;4.83;;
6135;SDS011;24008;42.664;23.372;2023-02-03T14:57:55;7.33;;;3.90;;
6135;SDS011;24008;42.664;23.372;2023-02-03T15:00:29;5.80;;;4.20;;
6135;SDS011;24008;42.664;23.372;2023-02-03T15:03:15;5.10;;;4.07;;
6135;SDS011;24008;42.664;23.372;2023-02-03T15:05:47;10.30;;;3.87;;
6135;SDS011;24008;42.664;23.372;2023-02-03T15:11:26;11.30;;;4.57;;
6135;SDS011;24008;42.664;23.372;2023-02-03T15:13:55;5.50;;;4.20;;
6135;SDS011;24008;42.664;23.372;2023-02-03T15:16:40;6.10;;;4.30;;
6135;SDS011;24008;42.664;23.372;2023-02-03T15:19:14;8.00;;;4.20;;
6135;SDS011;24008;42.664;23.372;2023-02-03T15:21:43;9.13;;;4.53;;
6135;SDS011;24008;42.664;23.372;2023-02-03T15:24:14;5.87;;;4.30;;
6135;SDS011;24008;42.664;23.372;2023-02-03T15:26:44;7.77;;;4.40;;
6135;SDS011;24008;42.664;23.372;2023-02-03T15:29:17;6.47;;;4.77;;
6135;SDS011;24008;42.664;23.372;2023-02-03T15:31:51;4.67;;;3.97;;
6135;SDS011;24008;42.664;23.372;2023-02-03T15:34:25;5.67;;;4.23;;
6135;SDS011;24008;42.664;23.372;2023-02-03T15:36:55;13.50;;;6.80;;
6135;SDS011;24008;42.664;23.372;2023-02-03T15:39:30;11.87;;;7.00;;